Time;durP1;ratioP1;P1;durP2;ratioP2;P2;SDS_P1;SDS_P2;PMS_P1;PMS_P2;Temp;Humidity;BMP_temperature;BMP_pressure;BME280_temperature;BME280_humidity;BME280_pressure;Samples;Min_cycle;Max_cycle;Signal;HPM_P1;HPM_P2
2023/03/30 00:00:25;;;;;;;;;;;;;;;9.87;100.00;98430.28;5110712;28;20379;-77
2023/03/30 00:02:53;;;;;;;;;;;;;;;9.88;100.00;98428.44;5092693;28;20293;-77
2023/03/30 00:05:22;;;;;;;;;;;;;;;9.87;100.00;98435.56;5109320;28;19916;-77
2023/03/30 00:07:50;;;;;;;;;;;;;;;9.86;100.00;98428.63;5110030;28;19919;-77
2023/03/30 00:10:18;;;;;;;;;;;;;;;9.83;100.00;98426.38;5102633;28;19915;-77
2023/03/30 00:12:46;;;;;;;;;;;;;;;9.84;100.00;98437.75;5109372;28;19915;-77
2023/03/30 00:15:17;;;;;;;;;;;;;;;9.79;100.00;98436.47;5108982;28;20007;-77
2023/03/30 00:17:47;;;;;;;;;;;;;;;9.74;100.00;98436.25;5105672;28;19930;-77
2023/03/30 00:20:17;;;;;;;;;;;;;;;9.71;100.00;98422.63;5112116;28;19981;-77
2023/03/30 00:22:47;;;;;;;;;;;;;;;9.63;100.00;98428.84;5109646;28;19915;-77
2023/03/30 00:25:17;;;;;;;;;;;;;;;9.59;100.00;98427.59;5103477;28;20002;-77
2023/03/30 00:27:47;;;;;;;;;;;;;;;9.53;100.00;98426.50;5108554;28;19916;-78
2023/03/30 00:30:17;;;;;;;;;;;;;;;9.48;100.00;98429.69;5107813;28;20350;-77
2023/03/30 00:32:47;;;;;;;;;;;;;;;9.43;100.00;98438.19;5107053;28;19926;-78
2023/03/30 00:35:16;;;;;;;;;;;;;;;9.37;100.00;98431.00;5110976;28;19951;-78
2023/03/30 00:37:44;;;;;;;;;;;;;;;9.35;100.00;98438.28;5067493;28;19966;-77
2023/03/30 00:40:15;;;;;;;;;;;;;;;9.35;100.00;98437.50;5109331;28;19970;-77
2023/03/30 00:42:45;;;;;;;;;;;;;;;9.27;100.00;98436.56;5091251;28;19919;-78
2023/03/30 00:45:15;;;;;;;;;;;;;;;9.24;100.00;98441.41;5075153;28;19923;-77
2023/03/30 00:47:46;;;;;;;;;;;;;;;9.24;100.00;98431.69;5111823;28;19922;-76
2023/03/30 00:50:20;;;;;;;;;;;;;;;9.22;100.00;98431.03;5088517;28;19922;-77
2023/03/30 00:52:52;;;;;;;;;;;;;;;9.22;100.00;98436.31;5099809;28;19916;-77
2023/03/30 00:55:24;;;;;;;;;;;;;;;9.21;100.00;98431.22;5088496;28;19928;-77
2023/03/30 00:57:53;;;;;;;;;;;;;;;9.26;100.00;98431.50;5076110;28;20319;-77
2023/03/30 01:00:22;;;;;;;;;;;;;;;9.19;100.00;98434.03;5106902;28;19920;-77
2023/03/30 01:02:55;;;;;;;;;;;;;;;9.09;100.00;98437.00;5114483;27;19919;-77
2023/03/30 01:05:24;;;;;;;;;;;;;;;9.02;100.00;98439.53;5129778;27;20401;-77
2023/03/30 01:07:53;;;;;;;;;;;;;;;8.98;100.00;98443.53;5114125;27;19912;-77
2023/03/30 01:10:20;;;;;;;;;;;;;;;8.93;100.00;98438.81;5127747;27;19911;-77
2023/03/30 01:12:48;;;;;;;;;;;;;;;8.90;100.00;98433.91;5102028;28;20362;-77
2023/03/30 01:15:16;;;;;;;;;;;;;;;8.86;100.00;98431.81;5107494;28;20372;-77
2023/03/30 01:17:56;;;;;;;;;;;;;;;8.81;100.00;98435.00;5107886;28;19920;-77
2023/03/30 01:20:39;;;;;;;;;;;;;;;8.80;100.00;98436.00;5100948;28;20379;-77
2023/03/30 01:23:26;;;;;;;;;;;;;;;8.72;100.00;98423.75;5111622;28;19919;-75
2023/03/30 01:26:19;;;;;;;;;;;;;;;8.66;100.00;98435.03;5130451;28;20043;-77
2023/03/30 01:28:53;;;;;;;;;;;;;;;8.64;100.00;98429.94;5102628;28;19919;-79
2023/03/30 01:31:34;;;;;;;;;;;;;;;8.61;100.00;98434.75;5123104;28;19923;-78
2023/03/30 01:34:21;;;;;;;;;;;;;;;8.61;100.00;98427.69;5127985;28;19972;-78
2023/03/30 01:36:53;;;;;;;;;;;;;;;8.58;100.00;98437.75;5123195;27;19968;-77
2023/03/30 01:39:22;;;;;;;;;;;;;;;8.52;100.00;98437.44;5094212;28;19924;-78
2023/03/30 01:41:59;;;;;;;;;;;;;;;8.47;100.00;98431.09;5131215;27;20058;-78
2023/03/30 01:44:30;;;;;;;;;;;;;;;8.44;100.00;98438.34;5090273;28;20002;-77
2023/03/30 01:47:01;;;;;;;;;;;;;;;8.45;100.00;98433.91;5128808;27;19921;-77
2023/03/30 01:49:43;;;;;;;;;;;;;;;8.46;100.00;98440.00;5116918;27;20544;-77
2023/03/30 01:52:24;;;;;;;;;;;;;;;8.46;100.00;98438.16;5112451;27;19927;-77
2023/03/30 01:55:09;;;;;;;;;;;;;;;8.46;100.00;98432.09;5096680;27;19924;-77
2023/03/30 01:57:40;;;;;;;;;;;;;;;8.41;100.00;98433.44;5113246;28;20006;-77
2023/03/30 02:00:13;;;;;;;;;;;;;;;8.34;100.00;98432.53;5112544;27;19915;-77
2023/03/30 02:02:48;;;;;;;;;;;;;;;8.27;100.00;98426.31;5104525;27;20059;-77
2023/03/30 02:05:19;;;;;;;;;;;;;;;8.23;100.00;98427.69;5095582;27;19923;-77
2023/03/30 02:07:55;;;;;;;;;;;;;;;8.18;100.00;98431.69;5099300;27;19958;-77
2023/03/30 02:10:27;;;;;;;;;;;;;;;8.13;100.00;98435.84;5112163;27;20008;-77
2023/03/30 02:12:59;;;;;;;;;;;;;;;8.10;100.00;98430.94;5095571;27;19911;-78
2023/03/30 02:15:38;;;;;;;;;;;;;;;8.12;100.00;98431.59;5108509;28;19916;-76
2023/03/30 02:18:08;;;;;;;;;;;;;;;8.11;100.00;98425.50;5112507;27;19999;-77
2023/03/30 02:20:38;;;;;;;;;;;;;;;8.12;100.00;98427.13;5111369;27;19911;-77
2023/03/30 02:23:08;;;;;;;;;;;;;;;8.15;100.00;98424.16;5114266;27;19956;-76
2023/03/30 02:25:39;;;;;;;;;;;;;;;8.19;100.00;98428.06;5099398;27;19939;-77
2023/03/30 02:28:09;;;;;;;;;;;;;;;8.22;100.00;98418.16;5133306;27;19918;-77
2023/03/30 02:30:42;;;;;;;;;;;;;;;8.23;100.00;98418.00;5098797;27;19916;-77
2023/03/30 02:33:24;;;;;;;;;;;;;;;8.23;100.00;98417.16;5082906;27;19922;-77
2023/03/30 02:35:54;;;;;;;;;;;;;;;8.20;100.00;98421.00;5114490;27;20366;-77
2023/03/30 02:38:35;;;;;;;;;;;;;;;8.16;100.00;98412.63;5081539;27;19990;-77
2023/03/30 02:41:14;;;;;;;;;;;;;;;8.13;100.00;98412.97;5131567;27;19934;-77
2023/03/30 02:43:58;;;;;;;;;;;;;;;8.10;100.00;98413.34;5075330;28;20370;-77
2023/03/30 02:46:27;;;;;;;;;;;;;;;8.10;100.00;98412.50;5129171;27;20331;-77
2023/03/30 02:49:15;;;;;;;;;;;;;;;8.06;100.00;98410.25;5079105;27;19926;-77
2023/03/30 02:51:53;;;;;;;;;;;;;;;8.06;100.00;98404.97;5113923;27;19916;-77
2023/03/30 02:54:48;;;;;;;;;;;;;;;8.07;100.00;98411.88;5105340;27;19919;-77
2023/03/30 02:57:28;;;;;;;;;;;;;;;8.05;100.00;98402.53;5128141;27;20010;-77
2023/03/30 03:00:17;;;;;;;;;;;;;;;8.00;100.00;98396.97;5097291;27;19926;-77
2023/03/30 03:02:56;;;;;;;;;;;;;;;7.96;100.00;98401.78;5093270;27;20315;-77
2023/03/30 03:05:28;;;;;;;;;;;;;;;7.93;100.00;98400.31;5080834;27;20394;-77
2023/03/30 03:08:13;;;;;;;;;;;;;;;7.87;100.00;98398.41;5095928;27;20312;-77
2023/03/30 03:10:45;;;;;;;;;;;;;;;7.80;100.00;98406.16;5101579;27;20358;-77
2023/03/30 03:13:17;;;;;;;;;;;;;;;7.75;100.00;98400.66;5084039;27;19919;-78
2023/03/30 03:15:48;;;;;;;;;;;;;;;7.73;100.00;98394.75;5093618;28;19920;-76
2023/03/30 03:18:17;;;;;;;;;;;;;;;7.72;100.00;98400.16;5110769;27;20379;-77
2023/03/30 03:20:45;;;;;;;;;;;;;;;7.72;100.00;98398.38;5090532;27;19919;-77
2023/03/30 03:23:12;;;;;;;;;;;;;;;7.71;100.00;98399.34;5087366;28;20022;-77
2023/03/30 03:25:48;;;;;;;;;;;;;;;7.68;100.00;98399.69;5095786;27;19958;-75
2023/03/30 03:28:20;;;;;;;;;;;;;;;7.68;100.00;98397.06;5097248;27;19915;-75
2023/03/30 03:30:53;;;;;;;;;;;;;;;7.71;100.00;98396.72;5104545;27;19927;-77
2023/03/30 03:33:23;;;;;;;;;;;;;;;7.72;100.00;98392.28;5106242;27;19911;-77
2023/03/30 03:36:12;;;;;;;;;;;;;;;7.72;100.00;98402.81;5099607;27;19912;-77
2023/03/30 03:38:46;;;;;;;;;;;;;;;7.69;100.00;98396.09;5077236;27;19912;-77
2023/03/30 03:41:16;;;;;;;;;;;;;;;7.64;100.00;98396.63;5125097;27;19911;-77
2023/03/30 03:43:46;;;;;;;;;;;;;;;7.60;100.00;98391.91;5080383;27;19966;-77
2023/03/30 03:46:18;;;;;;;;;;;;;;;7.62;100.00;98389.88;5103287;27;19957;-77
2023/03/30 03:48:47;;;;;;;;;;;;;;;7.66;100.00;98391.19;5106478;27;20026;-77
2023/03/30 03:51:16;;;;;;;;;;;;;;;7.71;100.00;98388.81;5095445;27;20358;-77
2023/03/30 03:53:44;;;;;;;;;;;;;;;7.74;100.00;98379.78;5084829;27;19963;-77
2023/03/30 03:56:15;;;;;;;;;;;;;;;7.80;100.00;98389.59;5095349;27;19984;-77
2023/03/30 03:58:43;;;;;;;;;;;;;;;7.88;100.00;98386.06;5082533;27;19911;-77
2023/03/30 04:01:13;;;;;;;;;;;;;;;7.96;100.00;98385.19;5126563;27;20431;-77
2023/03/30 04:03:42;;;;;;;;;;;;;;;8.01;100.00;98383.63;5096698;28;19920;-77
2023/03/30 04:06:10;;;;;;;;;;;;;;;8.09;100.00;98389.84;5070772;28;19957;-76
2023/03/30 04:08:38;;;;;;;;;;;;;;;8.13;100.00;98391.09;5089217;27;20350;-77
2023/03/30 04:11:17;;;;;;;;;;;;;;;8.16;100.00;98388.09;5083671;28;19967;-77
2023/03/30 04:13:56;;;;;;;;;;;;;;;8.22;100.00;98391.84;5084416;28;19928;-77
2023/03/30 04:16:56;;;;;;;;;;;;;;;8.28;100.00;98391.94;5045476;28;20325;-77
2023/03/30 04:19:45;;;;;;;;;;;;;;;8.25;100.00;98397.56;5096954;28;19951;-77
2023/03/30 04:22:41;;;;;;;;;;;;;;;8.24;100.00;98390.66;5073573;28;19989;-77
2023/03/30 04:25:29;;;;;;;;;;;;;;;8.25;100.00;98389.66;5104843;27;20394;-76
2023/03/30 04:28:32;;;;;;;;;;;;;;;8.33;100.00;98391.38;5013594;28;20018;-77
2023/03/30 04:31:16;;;;;;;;;;;;;;;8.39;100.00;98397.75;5081425;27;19927;-77
2023/03/30 04:34:03;;;;;;;;;;;;;;;8.41;100.00;98395.75;5105936;28;19931;-77
2023/03/30 04:36:42;;;;;;;;;;;;;;;8.39;100.00;98387.22;5078369;28;20352;-77
2023/03/30 04:39:29;;;;;;;;;;;;;;;8.43;100.00;98389.31;5092495;28;19922;-77
2023/03/30 04:42:18;;;;;;;;;;;;;;;8.46;100.00;98390.75;5069589;28;20391;-77
2023/03/30 04:45:07;;;;;;;;;;;;;;;8.49;100.00;98395.66;5071894;28;19919;-77
2023/03/30 04:47:40;;;;;;;;;;;;;;;8.54;100.00;98398.59;5078023;27;20312;-77
2023/03/30 04:50:27;;;;;;;;;;;;;;;8.54;100.00;98387.22;5100794;27;19922;-77
2023/03/30 04:53:14;;;;;;;;;;;;;;;8.58;100.00;98385.06;5087547;28;19961;-77
2023/03/30 04:55:51;;;;;;;;;;;;;;;8.60;100.00;98383.88;5087286;28;20403;-77
2023/03/30 04:58:37;;;;;;;;;;;;;;;8.61;100.00;98382.06;5073822;28;20332;-77
2023/03/30 05:01:45;;;;;;;;;;;;;;;8.58;100.00;98385.06;5067914;28;19920;-77
2023/03/30 05:04:45;;;;;;;;;;;;;;;8.56;100.00;98383.44;5055807;28;20292;-77
2023/03/30 05:07:32;;;;;;;;;;;;;;;8.55;100.00;98389.69;5107689;28;19915;-77
2023/03/30 05:10:12;;;;;;;;;;;;;;;8.54;100.00;98390.72;5092127;28;19951;-77
2023/03/30 05:12:54;;;;;;;;;;;;;;;8.54;100.00;98393.34;5095125;28;19926;-77
2023/03/30 05:15:55;;;;;;;;;;;;;;;8.56;100.00;98395.78;5089360;28;19920;-77
2023/03/30 05:18:39;;;;;;;;;;;;;;;8.59;100.00;98397.22;5079639;28;19926;-77
2023/03/30 05:21:17;;;;;;;;;;;;;;;8.61;100.00;98405.78;5103953;28;19935;-78
2023/03/30 05:23:58;;;;;;;;;;;;;;;8.64;100.00;98406.25;5108688;28;19927;-77
2023/03/30 05:26:34;;;;;;;;;;;;;;;8.68;100.00;98407.50;5096782;28;19916;-77
2023/03/30 05:29:17;;;;;;;;;;;;;;;8.71;100.00;98403.69;5084845;28;20419;-78
2023/03/30 05:31:57;;;;;;;;;;;;;;;8.73;100.00;98401.69;5110654;28;19923;-77
2023/03/30 05:34:45;;;;;;;;;;;;;;;8.76;100.00;98395.25;5104708;28;19931;-77
2023/03/30 05:37:31;;;;;;;;;;;;;;;8.75;100.00;98391.78;5106058;28;20391;-78
2023/03/30 05:40:26;;;;;;;;;;;;;;;8.77;100.00;98397.69;5093502;28;19923;-78
2023/03/30 05:43:20;;;;;;;;;;;;;;;8.78;100.00;98399.31;5080646;28;19917;-78
2023/03/30 05:46:09;;;;;;;;;;;;;;;8.79;100.00;98397.50;5103974;28;19916;-78
2023/03/30 05:48:42;;;;;;;;;;;;;;;8.79;100.00;98398.31;5108531;28;20015;-77
2023/03/30 05:51:20;;;;;;;;;;;;;;;8.81;100.00;98400.75;5109003;28;19930;-78
2023/03/30 05:53:59;;;;;;;;;;;;;;;8.80;100.00;98404.41;5087715;28;20360;-77
2023/03/30 05:56:46;;;;;;;;;;;;;;;8.83;100.00;98408.47;5102700;28;19975;-78
2023/03/30 05:59:28;;;;;;;;;;;;;;;8.88;100.00;98408.75;5094091;28;19923;-77
2023/03/30 06:02:06;;;;;;;;;;;;;;;8.89;100.00;98415.66;5089659;28;20398;-78
2023/03/30 06:04:34;;;;;;;;;;;;;;;8.91;100.00;98421.56;5071964;28;19924;-78
2023/03/30 06:07:03;;;;;;;;;;;;;;;8.93;100.00;98419.56;5106077;28;19965;-77
2023/03/30 06:09:30;;;;;;;;;;;;;;;8.97;100.00;98418.19;5087195;28;20334;-78
2023/03/30 06:12:01;;;;;;;;;;;;;;;8.99;100.00;98424.09;5074800;28;19959;-77
2023/03/30 06:14:30;;;;;;;;;;;;;;;9.03;100.00;98425.34;5107349;28;20380;-77
2023/03/30 06:17:15;;;;;;;;;;;;;;;9.08;100.00;98426.63;5107306;28;19916;-78
2023/03/30 06:19:44;;;;;;;;;;;;;;;9.09;100.00;98431.72;5093433;28;19930;-77
2023/03/30 06:22:11;;;;;;;;;;;;;;;9.10;100.00;98433.34;5107751;28;20363;-78
2023/03/30 06:25:06;;;;;;;;;;;;;;;9.14;100.00;98442.50;5099432;28;19915;-78
2023/03/30 06:27:34;;;;;;;;;;;;;;;9.14;100.00;98439.06;5110314;28;19920;-78
2023/03/30 06:30:02;;;;;;;;;;;;;;;9.14;100.00;98450.41;5098615;28;19919;-78
2023/03/30 06:32:30;;;;;;;;;;;;;;;9.16;100.00;98447.59;5101717;28;19916;-77
2023/03/30 06:35:17;;;;;;;;;;;;;;;9.18;100.00;98448.25;5102851;28;19969;-78
2023/03/30 06:37:45;;;;;;;;;;;;;;;9.15;100.00;98454.69;5112200;28;19966;-77
2023/03/30 06:40:16;;;;;;;;;;;;;;;9.16;100.00;98466.88;5112693;28;20365;-77
2023/03/30 06:42:47;;;;;;;;;;;;;;;9.15;100.00;98459.97;5074714;28;20310;-78
2023/03/30 06:45:28;;;;;;;;;;;;;;;9.16;100.00;98474.78;5095078;28;19916;-77
2023/03/30 06:47:55;;;;;;;;;;;;;;;9.16;100.00;98485.31;5111956;28;19961;-77
2023/03/30 06:50:24;;;;;;;;;;;;;;;9.12;100.00;98480.59;5085621;28;20043;-78
2023/03/30 06:52:52;;;;;;;;;;;;;;;9.12;100.00;98478.78;5099103;28;20383;-78
2023/03/30 06:55:22;;;;;;;;;;;;;;;9.14;100.00;98486.53;5082737;28;20375;-78
2023/03/30 06:57:49;;;;;;;;;;;;;;;9.17;100.00;98486.16;5073166;28;19920;-77
2023/03/30 07:00:19;;;;;;;;;;;;;;;9.20;100.00;98487.59;5090986;28;19916;-78
2023/03/30 07:02:52;;;;;;;;;;;;;;;9.24;100.00;98489.69;5110404;27;19988;-77
2023/03/30 07:05:27;;;;;;;;;;;;;;;9.31;100.00;98492.41;5079136;28;19947;-78
2023/03/30 07:08:07;;;;;;;;;;;;;;;9.36;100.00;98500.56;5081532;28;20007;-78
2023/03/30 07:10:38;;;;;;;;;;;;;;;9.43;100.00;98495.38;5073608;27;20291;-77
2023/03/30 07:13:07;;;;;;;;;;;;;;;9.50;100.00;98506.81;5072338;28;19989;-77
2023/03/30 07:15:36;;;;;;;;;;;;;;;9.59;100.00;98502.25;5086153;28;19920;-77
2023/03/30 07:18:05;;;;;;;;;;;;;;;9.66;100.00;98505.78;5076471;28;19916;-78
2023/03/30 07:20:31;;;;;;;;;;;;;;;9.73;100.00;98502.41;5064604;28;20395;-78
2023/03/30 07:23:13;;;;;;;;;;;;;;;9.74;100.00;98501.38;5067441;28;19922;-78
2023/03/30 07:25:41;;;;;;;;;;;;;;;9.78;100.00;98506.09;5070901;27;19923;-77
2023/03/30 07:28:15;;;;;;;;;;;;;;;9.83;100.00;98504.72;5073701;28;19916;-78
2023/03/30 07:30:44;;;;;;;;;;;;;;;9.86;100.00;98504.34;5091127;28;20014;-78
2023/03/30 07:33:13;;;;;;;;;;;;;;;9.89;100.00;98509.25;5077020;28;21193;-78
2023/03/30 07:35:46;;;;;;;;;;;;;;;9.91;100.00;98513.34;5090122;28;19957;-78
2023/03/30 07:38:20;;;;;;;;;;;;;;;9.97;100.00;98513.59;5093685;28;19920;-78
2023/03/30 07:40:51;;;;;;;;;;;;;;;9.96;100.00;98510.13;5070729;28;19922;-78
2023/03/30 07:43:22;;;;;;;;;;;;;;;9.97;100.00;98511.75;5075190;28;19920;-78
2023/03/30 07:45:50;;;;;;;;;;;;;;;9.99;100.00;98517.66;5092003;28;19920;-78
2023/03/30 07:48:23;;;;;;;;;;;;;;;10.01;100.00;98509.56;5085235;28;19964;-78
2023/03/30 07:50:59;;;;;;;;;;;;;;;10.02;100.00;98509.38;5107569;27;19960;-78
2023/03/30 07:53:30;;;;;;;;;;;;;;;10.09;100.00;98519.19;5077372;28;20328;-78
2023/03/30 07:56:02;;;;;;;;;;;;;;;10.13;100.00;98521.25;5098290;27;19955;-78
2023/03/30 07:58:39;;;;;;;;;;;;;;;10.23;100.00;98528.03;5071901;27;19916;-78
2023/03/30 08:01:09;;;;;;;;;;;;;;;10.30;100.00;98526.28;5072016;28;19961;-78
2023/03/30 08:03:43;;;;;;;;;;;;;;;10.35;100.00;98537.06;5100776;27;19927;-78
2023/03/30 08:06:13;;;;;;;;;;;;;;;10.41;100.00;98538.97;5105637;28;19988;-78
2023/03/30 08:08:45;;;;;;;;;;;;;;;10.46;100.00;98532.28;5096221;27;19968;-78
2023/03/30 08:11:15;;;;;;;;;;;;;;;10.49;100.00;98526.66;5109723;28;19916;-78
2023/03/30 08:13:41;;;;;;;;;;;;;;;10.56;100.00;98524.06;5097800;27;19915;-77
2023/03/30 08:16:11;;;;;;;;;;;;;;;10.57;100.00;98528.34;5093051;28;19927;-77
2023/03/30 08:18:40;;;;;;;;;;;;;;;10.61;100.00;98538.31;5090852;27;19954;-78
2023/03/30 08:21:09;;;;;;;;;;;;;;;10.64;100.00;98539.75;5112519;27;19919;-77
2023/03/30 08:23:36;;;;;;;;;;;;;;;10.66;100.00;98537.75;5084542;27;19922;-78
2023/03/30 08:26:04;;;;;;;;;;;;;;;10.69;100.00;98531.28;5114841;27;20359;-78
2023/03/30 08:28:32;;;;;;;;;;;;;;;10.69;100.00;98537.38;5112157;27;19915;-78
2023/03/30 08:31:04;;;;;;;;;;;;;;;10.73;100.00;98537.81;5120398;27;20359;-78
2023/03/30 08:33:32;;;;;;;;;;;;;;;10.79;100.00;98537.03;5114344;27;19930;-77
2023/03/30 08:35:59;;;;;;;;;;;;;;;10.84;100.00;98533.81;5114017;27;19919;-75
2023/03/30 08:38:28;;;;;;;;;;;;;;;10.87;100.00;98536.88;5110652;28;19920;-75
2023/03/30 08:40:56;;;;;;;;;;;;;;;10.92;100.00;98542.38;5113302;27;20393;-77
2023/03/30 08:43:32;;;;;;;;;;;;;;;11.08;100.00;98544.94;5106961;28;19925;-77
2023/03/30 08:46:02;;;;;;;;;;;;;;;11.22;100.00;98541.34;5112947;27;19919;-78
2023/03/30 08:48:32;;;;;;;;;;;;;;;11.37;100.00;98546.50;5095069;28;19951;-78
2023/03/30 08:51:04;;;;;;;;;;;;;;;11.56;100.00;98556.56;5078829;27;20289;-77
2023/03/30 08:53:33;;;;;;;;;;;;;;;11.69;100.00;98556.59;5114481;27;19920;-76
2023/03/30 08:56:09;;;;;;;;;;;;;;;11.71;100.00;98553.75;5107564;27;19915;-78
2023/03/30 08:58:59;;;;;;;;;;;;;;;11.69;100.00;98563.72;5105338;28;20022;-77
2023/03/30 09:01:33;;;;;;;;;;;;;;;11.67;100.00;98545.41;5080897;28;19926;-77
2023/03/30 09:04:18;;;;;;;;;;;;;;;11.68;100.00;98560.25;5104135;28;19924;-77
2023/03/30 09:06:59;;;;;;;;;;;;;;;11.69;100.00;98561.88;5102099;28;19924;-79
2023/03/30 09:09:31;;;;;;;;;;;;;;;11.78;100.00;98560.69;5078025;28;20011;-79
2023/03/30 09:12:13;;;;;;;;;;;;;;;11.95;100.00;98559.50;5085908;28;20444;-79
2023/03/30 09:14:46;;;;;;;;;;;;;;;12.09;100.00;98553.28;5099832;28;19923;-79
2023/03/30 09:17:20;;;;;;;;;;;;;;;12.30;100.00;98562.06;5107812;28;19927;-79
2023/03/30 09:19:52;;;;;;;;;;;;;;;12.45;100.00;98559.22;5073713;28;20284;-79
2023/03/30 09:22:26;;;;;;;;;;;;;;;12.51;100.00;98560.25;5102284;28;19920;-79
2023/03/30 09:24:56;;;;;;;;;;;;;;;12.58;100.00;98552.28;5097837;28;20025;-79
2023/03/30 09:27:32;;;;;;;;;;;;;;;12.66;100.00;98554.75;5094742;28;20369;-79
2023/03/30 09:30:07;;;;;;;;;;;;;;;12.70;100.00;98563.09;5099288;28;20394;-79
2023/03/30 09:32:41;;;;;;;;;;;;;;;12.69;100.00;98572.88;5101063;28;20069;-77
2023/03/30 09:35:11;;;;;;;;;;;;;;;12.70;100.00;98563.91;5108013;28;20006;-77
2023/03/30 09:37:41;;;;;;;;;;;;;;;12.71;100.00;98570.81;5102247;28;19916;-79
2023/03/30 09:40:18;;;;;;;;;;;;;;;12.72;100.00;98569.00;5092581;28;19920;-79
2023/03/30 09:42:53;;;;;;;;;;;;;;;12.70;100.00;98569.22;5096887;28;19915;-79
2023/03/30 09:45:26;;;;;;;;;;;;;;;12.75;100.00;98572.06;5106786;28;20379;-79
2023/03/30 09:47:56;;;;;;;;;;;;;;;12.67;100.00;98566.97;5102895;28;20023;-79
2023/03/30 09:50:25;;;;;;;;;;;;;;;12.65;100.00;98563.69;5107611;28;19919;-78
2023/03/30 09:52:56;;;;;;;;;;;;;;;12.67;100.00;98560.84;5107244;28;19919;-79
2023/03/30 09:55:25;;;;;;;;;;;;;;;12.62;100.00;98562.28;5100191;28;19927;-77
2023/03/30 09:57:54;;;;;;;;;;;;;;;12.85;100.00;98568.19;5102342;28;19923;-79
2023/03/30 10:00:34;;;;;;;;;;;;;;;12.95;100.00;98563.25;5094761;28;20057;-79
2023/03/30 10:03:05;;;;;;;;;;;;;;;13.10;100.00;98560.38;5106447;27;20040;-79
2023/03/30 10:05:36;;;;;;;;;;;;;;;13.19;100.00;98558.31;5127146;27;19920;-79
2023/03/30 10:08:15;;;;;;;;;;;;;;;13.29;100.00;98571.16;5105673;27;19958;-78
2023/03/30 10:10:43;;;;;;;;;;;;;;;13.37;100.00;98572.75;5113620;27;19916;-79
2023/03/30 10:13:20;;;;;;;;;;;;;;;13.49;100.00;98565.78;5130583;27;20267;-79
2023/03/30 10:15:52;;;;;;;;;;;;;;;13.50;100.00;98564.78;5109547;27;20282;-79
2023/03/30 10:18:30;;;;;;;;;;;;;;;13.53;100.00;98568.84;5070328;27;19923;-79
2023/03/30 10:21:00;;;;;;;;;;;;;;;13.56;100.00;98565.78;5100346;27;19931;-79
2023/03/30 10:23:32;;;;;;;;;;;;;;;13.56;100.00;98576.41;5104555;28;20002;-79
2023/03/30 10:26:02;;;;;;;;;;;;;;;13.64;100.00;98570.84;5109476;27;19927;-79
2023/03/30 10:28:32;;;;;;;;;;;;;;;13.84;100.00;98585.06;5099695;27;19926;-79
2023/03/30 10:31:02;;;;;;;;;;;;;;;14.01;100.00;98572.91;5082817;27;19927;-79
2023/03/30 10:33:31;;;;;;;;;;;;;;;14.09;100.00;98576.34;5057294;27;19919;-76
2023/03/30 10:36:02;;;;;;;;;;;;;;;14.09;100.00;98586.97;5086062;27;20022;-79
2023/03/30 10:38:33;;;;;;;;;;;;;;;14.12;100.00;98583.88;5104571;28;19920;-79
2023/03/30 10:41:09;;;;;;;;;;;;;;;14.11;100.00;98584.94;5109483;28;20435;-79
2023/03/30 10:43:40;;;;;;;;;;;;;;;14.04;100.00;98569.03;5119453;27;20387;-79
2023/03/30 10:46:14;;;;;;;;;;;;;;;14.18;100.00;98585.69;5116639;27;19923;-78
2023/03/30 10:49:04;;;;;;;;;;;;;;;14.50;100.00;98569.72;5110361;27;20423;-79
2023/03/30 10:51:52;;;;;;;;;;;;;;;14.62;100.00;98569.03;5108393;27;19995;-79
2023/03/30 10:54:26;;;;;;;;;;;;;;;14.76;100.00;98567.06;5123014;27;19924;-79
2023/03/30 10:57:16;;;;;;;;;;;;;;;14.86;100.00;98570.06;5096500;27;19920;-79
2023/03/30 10:59:49;;;;;;;;;;;;;;;15.05;100.00;98567.41;5103125;28;19951;-79
2023/03/30 11:02:48;;;;;;;;;;;;;;;15.24;100.00;98568.25;5129323;27;19965;-79
2023/03/30 11:05:17;;;;;;;;;;;;;;;15.56;100.00;98564.59;5060540;28;19919;-79
2023/03/30 11:07:54;;;;;;;;;;;;;;;15.62;100.00;98562.91;5092726;28;20395;-79
2023/03/30 11:10:50;;;;;;;;;;;;;;;15.44;100.00;98559.22;5079598;28;19916;-79
2023/03/30 11:13:38;;;;;;;;;;;;;;;15.28;100.00;98549.16;5093859;28;20004;-79
2023/03/30 11:16:12;;;;;;;;;;;;;;;15.25;100.00;98556.59;5082014;28;19923;-79
2023/03/30 11:18:54;;;;;;;;;;;;;;;15.15;100.00;98550.94;5100393;28;19916;-79
2023/03/30 11:21:24;;;;;;;;;;;;;;;15.17;100.00;98540.91;5095635;28;20280;-78
2023/03/30 11:23:55;;;;;;;;;;;;;;;15.33;100.00;98541.34;5075943;28;19941;-79
2023/03/30 11:26:37;;;;;;;;;;;;;;;15.40;100.00;98536.72;5074274;28;20367;-79
2023/03/30 11:29:16;;;;;;;;;;;;;;;15.36;100.00;98524.91;5076779;28;19975;-79
2023/03/30 11:31:45;;;;;;;;;;;;;;;15.21;100.00;98528.78;5076728;28;19961;-79
2023/03/30 11:34:29;;;;;;;;;;;;;;;15.07;100.00;98522.78;5110714;28;19920;-79
2023/03/30 11:37:07;;;;;;;;;;;;;;;14.96;100.00;98521.69;5089425;28;19970;-79
2023/03/30 11:39:37;;;;;;;;;;;;;;;14.91;100.00;98528.72;5090931;28;20334;-79
2023/03/30 11:42:12;;;;;;;;;;;;;;;14.89;100.00;98518.28;5083500;28;20336;-79
2023/03/30 11:44:42;;;;;;;;;;;;;;;15.04;100.00;98517.91;5095826;28;19935;-79
2023/03/30 11:47:19;;;;;;;;;;;;;;;15.27;100.00;98512.94;5095893;28;19920;-79
2023/03/30 11:49:53;;;;;;;;;;;;;;;15.34;100.00;98516.34;5094465;28;19937;-79
2023/03/30 11:52:41;;;;;;;;;;;;;;;15.32;100.00;98513.91;5078493;28;20402;-78
2023/03/30 11:55:11;;;;;;;;;;;;;;;15.34;100.00;98501.19;5102189;28;19930;-79
2023/03/30 11:57:44;;;;;;;;;;;;;;;15.36;100.00;98512.44;5088984;28;19920;-80
2023/03/30 12:00:34;;;;;;;;;;;;;;;15.33;100.00;98504.06;5104473;28;19986;-79
2023/03/30 12:03:04;;;;;;;;;;;;;;;15.32;100.00;98491.81;5078298;27;20008;-79
2023/03/30 12:05:37;;;;;;;;;;;;;;;15.37;100.00;98499.91;5129897;27;19927;-79
2023/03/30 12:08:15;;;;;;;;;;;;;;;15.44;100.00;98508.66;5121388;27;19923;-79
2023/03/30 12:10:47;;;;;;;;;;;;;;;15.47;100.00;98502.88;5097318;27;19916;-79
2023/03/30 12:13:18;;;;;;;;;;;;;;;15.43;100.00;98504.34;5114305;27;20282;-79
2023/03/30 12:15:55;;;;;;;;;;;;;;;15.28;100.00;98501.25;5098056;28;20397;-79
2023/03/30 12:18:44;;;;;;;;;;;;;;;15.10;100.00;98492.25;5101401;27;19954;-79
2023/03/30 12:21:32;;;;;;;;;;;;;;;14.97;100.00;98493.25;5091542;28;19915;-77
2023/03/30 12:24:20;;;;;;;;;;;;;;;14.82;100.00;98491.75;5114151;27;19916;-77
2023/03/30 12:26:51;;;;;;;;;;;;;;;14.60;100.00;98492.16;5093891;28;19912;-77
2023/03/30 12:29:20;;;;;;;;;;;;;;;14.48;100.00;98492.03;5093187;27;19994;-77
2023/03/30 12:32:01;;;;;;;;;;;;;;;14.46;100.00;98483.47;5124379;27;19918;-77
2023/03/30 12:34:35;;;;;;;;;;;;;;;14.68;100.00;98479.59;5107997;28;19920;-78
2023/03/30 12:37:08;;;;;;;;;;;;;;;14.91;100.00;98476.31;5108790;27;19911;-76
2023/03/30 12:39:47;;;;;;;;;;;;;;;14.92;100.00;98471.81;5104369;27;19911;-77
2023/03/30 12:42:26;;;;;;;;;;;;;;;14.93;100.00;98476.06;5103702;27;20229;-77
2023/03/30 12:45:20;;;;;;;;;;;;;;;15.15;100.00;98464.97;5096199;27;19915;-79
2023/03/30 12:48:02;;;;;;;;;;;;;;;15.46;100.00;98468.50;5101615;28;19931;-78
2023/03/30 12:50:51;;;;;;;;;;;;;;;15.46;100.00;98456.00;5111787;27;20010;-79
2023/03/30 12:53:36;;;;;;;;;;;;;;;15.34;100.00;98455.13;5096618;27;19923;-79
2023/03/30 12:56:10;;;;;;;;;;;;;;;15.21;100.00;98467.56;5113625;27;19925;-79
2023/03/30 12:58:58;;;;;;;;;;;;;;;15.03;100.00;98452.44;5098512;27;20002;-80
2023/03/30 13:01:30;;;;;;;;;;;;;;;14.92;100.00;98461.16;5088460;28;19942;-79
2023/03/30 13:04:02;;;;;;;;;;;;;;;14.98;100.00;98460.28;5106769;28;19923;-79
2023/03/30 13:06:34;;;;;;;;;;;;;;;15.07;100.00;98448.28;5093618;28;20014;-79
2023/03/30 13:09:21;;;;;;;;;;;;;;;15.29;100.00;98439.03;5093777;28;19912;-79
2023/03/30 13:11:55;;;;;;;;;;;;;;;15.58;100.00;98445.38;5103771;28;20517;-79
2023/03/30 13:14:26;;;;;;;;;;;;;;;15.59;100.00;98433.69;5110543;28;19964;-79
2023/03/30 13:16:53;;;;;;;;;;;;;;;15.54;100.00;98424.75;5122698;27;20019;-78
2023/03/30 13:19:25;;;;;;;;;;;;;;;15.38;100.00;98411.84;5089677;28;20014;-79
2023/03/30 13:22:04;;;;;;;;;;;;;;;15.16;100.00;98424.03;5082345;28;20329;-79
2023/03/30 13:24:33;;;;;;;;;;;;;;;15.30;100.00;98420.16;5109817;28;19919;-79